createdAt,value
2018-08-22T00:00:14.805Z,99.99
2018-08-22T00:01:14.794Z,99.99
2018-08-22T00:02:14.774Z,99.99
2018-08-22T00:03:14.768Z,99.99
2018-08-22T00:04:14.768Z,99.99
2018-08-22T00:05:14.743Z,99.99
2018-08-22T00:06:14.749Z,99.99
2018-08-22T00:07:14.723Z,99.99
2018-08-22T00:08:14.710Z,99.99
2018-08-22T00:09:14.699Z,99.99
2018-08-22T00:10:14.687Z,99.99
2018-08-22T00:11:14.676Z,99.99
2018-08-22T00:12:14.678Z,99.99
2018-08-22T00:13:14.651Z,99.99
2018-08-22T00:14:14.632Z,99.99
2018-08-22T00:15:14.710Z,99.99
2018-08-22T00:16:14.614Z,99.99
2018-08-22T00:17:14.617Z,99.99
2018-08-22T00:18:14.585Z,99.99
2018-08-22T00:19:14.576Z,99.99
2018-08-22T00:20:14.565Z,99.99
2018-08-22T00:21:14.553Z,99.99
2018-08-22T00:22:14.537Z,99.99
2018-08-22T00:23:14.546Z,99.99
2018-08-22T00:24:14.517Z,99.99
2018-08-22T00:25:14.541Z,99.99
2018-08-22T00:26:14.495Z,99.99
2018-08-22T00:27:14.479Z,99.99
2018-08-22T00:28:14.485Z,99.99
2018-08-22T00:29:14.487Z,99.99
2018-08-22T00:30:14.449Z,99.99
2018-08-22T00:31:14.433Z,99.99
2018-08-22T00:32:14.418Z,99.06
2018-08-22T00:33:14.421Z,99.06
2018-08-22T00:34:14.396Z,98.29
2018-08-22T00:35:14.388Z,98.92
2018-08-22T00:36:14.369Z,97.96
2018-08-22T00:37:14.365Z,97.62
2018-08-22T00:38:14.363Z,96.80
2018-08-22T00:39:14.337Z,95.84
2018-08-22T00:40:14.322Z,97.19
2018-08-22T00:41:14.313Z,97.09
2018-08-22T00:42:14.298Z,97.14
2018-08-22T00:43:14.286Z,97.24
2018-08-22T00:44:14.290Z,97.14
2018-08-22T00:45:14.264Z,97.91
2018-08-22T00:46:14.252Z,98.00
2018-08-22T00:47:14.243Z,97.81
2018-08-22T00:48:14.222Z,98.68
2018-08-22T00:49:14.255Z,99.26
2018-08-22T00:50:14.200Z,98.39
2018-08-22T00:51:14.188Z,99.74
2018-08-22T00:52:14.175Z,99.49
2018-08-22T00:53:14.165Z,99.16
2018-08-22T00:54:14.153Z,99.99
2018-08-22T00:55:14.160Z,99.11
2018-08-22T00:56:14.137Z,98.97
2018-08-22T00:57:14.115Z,99.11
2018-08-22T00:58:14.104Z,99.21
2018-08-22T00:59:14.093Z,99.21
2018-08-22T01:00:14.093Z,99.30
2018-08-22T01:01:14.070Z,98.24
2018-08-22T01:02:14.056Z,98.54
2018-08-22T01:03:14.044Z,98.82
2018-08-22T01:04:14.025Z,99.40
2018-08-22T01:05:14.029Z,98.82
2018-08-22T01:06:14.026Z,99.49
2018-08-22T01:07:13.991Z,99.98
2018-08-22T01:08:13.981Z,99.49
2018-08-22T01:09:13.970Z,99.99
2018-08-22T01:10:13.978Z,99.99
2018-08-22T01:11:13.946Z,99.98
2018-08-22T01:12:13.933Z,99.99
2018-08-22T01:13:13.929Z,99.99
2018-08-22T01:14:13.904Z,99.99
2018-08-22T01:15:13.888Z,99.99
2018-08-22T01:16:13.894Z,99.99
2018-08-22T01:17:13.869Z,99.99
2018-08-22T01:18:13.859Z,99.99
2018-08-22T01:19:13.843Z,99.99
2018-08-22T01:20:13.834Z,99.99
2018-08-22T01:21:13.836Z,99.99
2018-08-22T01:22:13.821Z,99.99
2018-08-22T01:23:13.832Z,99.99
2018-08-22T01:24:13.778Z,99.99
2018-08-22T01:25:13.766Z,99.99
2018-08-22T01:26:13.755Z,99.99
2018-08-22T01:27:13.744Z,99.99
2018-08-22T01:28:13.731Z,99.99
2018-08-22T01:29:13.733Z,99.99
2018-08-22T01:30:13.712Z,99.99
2018-08-22T01:31:13.695Z,99.99
2018-08-22T01:32:13.682Z,99.99
2018-08-22T01:33:13.666Z,99.99
2018-08-22T01:34:13.666Z,99.99
2018-08-22T01:35:13.647Z,99.99
2018-08-22T01:36:13.629Z,99.99
2018-08-22T01:37:13.617Z,99.99
2018-08-22T01:38:13.607Z,99.99
2018-08-22T01:39:13.607Z,99.99
2018-08-22T01:40:13.599Z,99.99
2018-08-22T01:41:13.566Z,99.99
2018-08-22T01:42:13.557Z,99.99
2018-08-22T01:43:13.542Z,99.99
2018-08-22T01:44:13.532Z,99.99
2018-08-22T01:45:13.517Z,99.99
2018-08-22T01:46:13.521Z,99.99
2018-08-22T01:47:13.493Z,99.99
2018-08-22T01:48:13.476Z,99.99
2018-08-22T01:49:13.458Z,99.99
2018-08-22T01:50:13.476Z,99.99
2018-08-22T01:51:13.438Z,99.99
2018-08-22T01:52:13.429Z,99.99
2018-08-22T01:53:13.408Z,99.99
2018-08-22T01:54:13.399Z,99.99
2018-08-22T01:55:13.419Z,99.99
2018-08-22T01:56:13.375Z,99.99
2018-08-22T01:57:13.361Z,99.99
2018-08-22T01:58:13.347Z,99.99
2018-08-22T01:59:13.334Z,99.99
2018-08-22T02:00:13.320Z,99.99
2018-08-22T02:01:13.329Z,99.99
2018-08-22T02:02:13.311Z,99.99
2018-08-22T02:03:13.291Z,99.99
2018-08-22T02:04:13.267Z,99.99
2018-08-22T02:05:13.257Z,99.99
2018-08-22T02:06:13.245Z,99.99
2018-08-22T02:07:13.244Z,99.99
2018-08-22T02:08:13.218Z,99.99
2018-08-22T02:09:13.200Z,99.99
2018-08-22T02:10:13.196Z,99.99
2018-08-22T02:11:13.177Z,99.99
2018-08-22T02:12:13.183Z,99.99
2018-08-22T02:13:13.151Z,99.99
2018-08-22T02:14:13.141Z,99.99
2018-08-22T02:15:13.127Z,99.99
2018-08-22T02:16:13.115Z,99.99
2018-08-22T02:17:13.102Z,99.99
2018-08-22T02:18:13.098Z,99.99
2018-08-22T02:19:13.074Z,99.99
2018-08-22T02:20:13.061Z,99.99
2018-08-22T02:21:13.048Z,99.99
2018-08-22T02:22:13.032Z,99.99
2018-08-22T02:23:13.036Z,99.99
2018-08-22T02:24:13.024Z,99.99
2018-08-22T02:25:13.061Z,99.99
2018-08-22T02:26:12.983Z,99.99
2018-08-22T02:27:12.972Z,99.99
2018-08-22T02:28:12.973Z,99.99
2018-08-22T02:29:12.941Z,99.99
2018-08-22T02:30:12.928Z,99.99
2018-08-22T02:31:12.918Z,99.99
2018-08-22T02:32:12.908Z,99.99
2018-08-22T02:33:12.916Z,99.99
2018-08-22T02:34:12.887Z,99.99
2018-08-22T02:35:12.865Z,99.99
2018-08-22T02:36:12.854Z,99.99
2018-08-22T02:37:12.839Z,99.99
2018-08-22T02:38:12.822Z,99.99
2018-08-22T02:39:12.836Z,99.99
2018-08-22T02:40:12.796Z,99.99
2018-08-22T02:41:12.786Z,99.99
2018-08-22T02:42:12.774Z,99.99
2018-08-22T02:43:12.754Z,99.99
2018-08-22T02:44:12.745Z,99.99
2018-08-22T02:45:12.749Z,99.99
2018-08-22T02:46:12.718Z,99.99
2018-08-22T02:47:12.713Z,99.99
2018-08-22T02:48:12.694Z,99.99
2018-08-22T02:49:12.700Z,99.99
2018-08-22T02:50:12.669Z,99.99
2018-08-22T02:51:12.655Z,99.99
2018-08-22T02:52:12.642Z,99.99
2018-08-22T02:53:12.631Z,99.99
2018-08-22T02:54:12.616Z,99.99
2018-08-22T02:55:12.615Z,99.99
2018-08-22T02:56:12.584Z,99.99
2018-08-22T02:57:12.592Z,99.99
2018-08-22T02:58:12.563Z,99.99
2018-08-22T02:59:12.546Z,99.99
2018-08-22T03:00:12.536Z,99.99
2018-08-22T03:01:12.521Z,99.99
2018-08-22T03:02:12.520Z,99.99
2018-08-22T03:03:12.495Z,99.99
2018-08-22T03:04:12.483Z,99.99
2018-08-22T03:05:12.474Z,99.99
2018-08-22T03:06:12.480Z,99.99
2018-08-22T03:07:12.470Z,99.99
2018-08-22T03:08:12.432Z,99.99
2018-08-22T03:09:12.418Z,99.99
2018-08-22T03:10:12.406Z,99.99
2018-08-22T03:11:12.393Z,99.99
2018-08-22T03:12:12.376Z,99.99
2018-08-22T03:13:12.379Z,99.99
2018-08-22T03:14:12.351Z,99.99
2018-08-22T03:15:12.340Z,99.99
2018-08-22T03:16:12.326Z,99.99
2018-08-22T03:17:12.312Z,99.99
2018-08-22T03:18:12.312Z,99.99
2018-08-22T03:19:12.289Z,99.99
2018-08-22T03:20:12.276Z,99.99
2018-08-22T03:21:12.268Z,99.99
2018-08-22T03:22:12.249Z,99.99
2018-08-22T03:23:12.249Z,99.99
2018-08-22T03:24:12.222Z,99.99
2018-08-22T03:25:12.204Z,99.99
2018-08-22T03:26:12.250Z,99.99
2018-08-22T03:27:12.190Z,99.99
2018-08-22T03:28:12.185Z,99.99
2018-08-22T03:29:12.156Z,99.99
2018-08-22T03:30:12.143Z,99.99
2018-08-22T03:31:12.134Z,99.99
2018-08-22T03:32:12.114Z,99.99
2018-08-22T03:33:12.108Z,99.99
2018-08-22T03:34:12.119Z,99.99
2018-08-22T03:35:12.083Z,99.99
2018-08-22T03:36:12.066Z,99.99
2018-08-22T03:37:12.051Z,99.99
2018-08-22T03:38:12.034Z,99.99
2018-08-22T03:39:12.040Z,99.99
2018-08-22T03:40:12.013Z,99.99
2018-08-22T03:41:11.997Z,99.99
2018-08-22T03:42:11.987Z,99.99
2018-08-22T03:43:11.975Z,99.99
2018-08-22T03:44:11.972Z,99.99
2018-08-22T03:45:11.948Z,99.99
2018-08-22T03:46:11.935Z,99.99
2018-08-22T03:47:11.920Z,99.99
2018-08-22T03:48:11.908Z,99.99
2018-08-22T03:49:11.908Z,99.99
2018-08-22T03:50:11.887Z,99.99
2018-08-22T03:51:11.867Z,99.99
2018-08-22T03:52:11.853Z,99.99
2018-08-22T03:53:11.841Z,99.99
2018-08-22T03:54:11.879Z,99.99
2018-08-22T03:55:11.810Z,99.99
2018-08-22T03:56:11.797Z,99.99
2018-08-22T03:57:11.785Z,99.99
2018-08-22T03:58:11.775Z,99.99
2018-08-22T03:59:11.760Z,99.99
2018-08-22T04:00:11.762Z,99.99
2018-08-22T04:01:11.731Z,99.99
2018-08-22T04:02:11.733Z,99.99
2018-08-22T04:03:11.711Z,99.99
2018-08-22T04:04:11.714Z,99.99
2018-08-22T04:05:11.696Z,99.99
2018-08-22T04:06:11.668Z,99.99
2018-08-22T04:07:11.662Z,99.99
2018-08-22T04:08:11.638Z,99.99
2018-08-22T04:09:11.629Z,99.99
2018-08-22T04:10:11.630Z,99.99
2018-08-22T04:11:11.608Z,99.99
2018-08-22T04:12:11.590Z,99.99
2018-08-22T04:13:11.579Z,99.99
2018-08-22T04:14:11.574Z,99.99
2018-08-22T04:15:11.554Z,99.99
2018-08-22T04:16:11.553Z,99.99
2018-08-22T04:17:11.523Z,99.99
2018-08-22T04:18:11.510Z,99.99
2018-08-22T04:19:11.497Z,99.99
2018-08-22T04:20:11.486Z,99.99
2018-08-22T04:21:11.501Z,99.99
2018-08-22T04:22:11.460Z,99.99
2018-08-22T04:23:11.441Z,99.99
2018-08-22T04:24:11.428Z,99.99
2018-08-22T04:25:11.418Z,99.99
2018-08-22T04:26:11.443Z,99.99
2018-08-22T04:27:11.393Z,99.99
2018-08-22T04:28:11.377Z,99.99
2018-08-22T04:29:11.366Z,99.99
2018-08-22T04:30:11.352Z,99.99
2018-08-22T04:31:11.340Z,99.99
2018-08-22T04:32:11.348Z,99.99
2018-08-22T04:33:11.314Z,99.99
2018-08-22T04:34:11.301Z,99.99
2018-08-22T04:35:11.293Z,99.99
2018-08-22T04:36:11.273Z,99.99
2018-08-22T04:37:11.290Z,99.99
2018-08-22T04:38:11.252Z,99.99
2018-08-22T04:39:11.238Z,99.99
2018-08-22T04:40:11.221Z,99.99
2018-08-22T04:41:11.214Z,99.99
2018-08-22T04:42:11.209Z,99.99
2018-08-22T04:43:11.216Z,99.99
2018-08-22T04:44:11.170Z,99.99
2018-08-22T04:45:11.153Z,99.99
2018-08-22T04:46:11.150Z,99.99
2018-08-22T04:47:11.127Z,99.99
2018-08-22T04:48:11.137Z,99.99
2018-08-22T04:49:11.118Z,99.99
2018-08-22T04:50:11.090Z,99.99
2018-08-22T04:51:11.075Z,99.99
2018-08-22T04:52:11.063Z,99.99
2018-08-22T04:53:11.065Z,99.99
2018-08-22T04:54:11.028Z,99.99
2018-08-22T04:55:11.023Z,99.99
2018-08-22T04:56:11.004Z,99.99
2018-08-22T04:57:10.987Z,99.99
2018-08-22T04:58:10.994Z,99.99
2018-08-22T04:59:10.967Z,99.99
2018-08-22T05:00:10.952Z,99.99
2018-08-22T05:01:10.942Z,99.99
2018-08-22T05:02:10.923Z,99.99
2018-08-22T05:03:10.932Z,99.99
2018-08-22T05:04:10.896Z,99.99
2018-08-22T05:05:10.919Z,99.99
2018-08-22T05:06:10.872Z,99.99
2018-08-22T05:07:10.862Z,99.99
2018-08-22T05:08:10.839Z,99.99
2018-08-22T05:09:10.833Z,99.99
2018-08-22T05:10:10.844Z,99.99
2018-08-22T05:11:10.819Z,99.99
2018-08-22T05:12:10.787Z,99.99
2018-08-22T05:13:10.781Z,99.99
2018-08-22T05:14:10.779Z,99.99
2018-08-22T05:15:10.749Z,99.99
2018-08-22T05:16:10.748Z,99.99
2018-08-22T05:17:10.725Z,99.99
2018-08-22T05:18:10.705Z,99.99
2018-08-22T05:19:10.695Z,99.99
2018-08-22T05:20:10.680Z,99.99
2018-08-22T05:21:10.685Z,99.99
2018-08-22T05:22:10.654Z,99.99
2018-08-22T05:23:10.646Z,99.99
2018-08-22T05:24:10.627Z,99.99
2018-08-22T05:25:10.614Z,99.99
2018-08-22T05:26:10.600Z,99.99
2018-08-22T05:27:10.601Z,99.99
2018-08-22T05:28:10.575Z,99.99
2018-08-22T05:29:10.558Z,99.99
2018-08-22T05:30:10.624Z,99.99
2018-08-22T05:31:10.549Z,99.99
2018-08-22T05:32:10.519Z,99.99
2018-08-22T05:33:10.505Z,99.99
2018-08-22T05:34:10.495Z,99.99
2018-08-22T05:35:10.487Z,99.99
2018-08-22T05:36:10.499Z,99.99
2018-08-22T05:37:10.467Z,99.99
2018-08-22T05:38:10.456Z,99.99
2018-08-22T05:39:10.432Z,99.99
2018-08-22T05:40:10.415Z,99.99
2018-08-22T05:41:10.446Z,99.99
2018-08-22T05:42:10.393Z,99.99
2018-08-22T05:43:10.377Z,99.99
2018-08-22T05:44:10.375Z,99.99
2018-08-22T05:45:10.349Z,99.99
2018-08-22T05:46:10.335Z,99.99
2018-08-22T05:47:10.326Z,99.99
2018-08-22T05:48:10.310Z,99.99
2018-08-22T05:49:10.347Z,99.99
2018-08-22T05:50:10.299Z,99.99
2018-08-22T05:51:10.271Z,99.99
2018-08-22T05:52:10.260Z,99.99
2018-08-22T05:53:10.241Z,99.99
2018-08-22T05:54:10.251Z,99.99
2018-08-22T05:55:10.233Z,99.99
2018-08-22T05:56:10.207Z,99.99
2018-08-22T05:57:10.196Z,99.99
2018-08-22T05:58:10.178Z,99.99
2018-08-22T05:59:10.183Z,99.99
2018-08-22T06:00:10.153Z,99.99
2018-08-22T06:01:10.146Z,99.99
2018-08-22T06:02:10.129Z,99.99
2018-08-22T06:03:10.122Z,99.99
2018-08-22T06:04:10.134Z,99.99
2018-08-22T06:05:10.092Z,99.99
2018-08-22T06:06:10.076Z,99.99
2018-08-22T06:07:10.068Z,99.99
2018-08-22T06:08:10.053Z,99.99
2018-08-22T06:09:10.051Z,99.99
2018-08-22T06:10:10.043Z,99.99
2018-08-22T06:11:10.017Z,99.99
2018-08-22T06:12:10.003Z,99.99
2018-08-22T06:13:09.993Z,99.99
2018-08-22T06:14:09.979Z,98.39
2018-08-22T06:15:09.980Z,99.99
2018-08-22T06:16:09.949Z,99.99
2018-08-22T06:17:09.951Z,99.99
2018-08-22T06:18:09.927Z,99.99
2018-08-22T06:19:09.918Z,99.54
2018-08-22T06:20:09.917Z,99.99
2018-08-22T06:21:09.911Z,99.35
2018-08-22T06:22:09.894Z,95.50
2018-08-22T06:23:09.865Z,95.40
2018-08-22T06:24:09.852Z,95.45
2018-08-22T06:25:09.871Z,95.26
2018-08-22T06:26:09.833Z,96.42
2018-08-22T06:27:09.817Z,95.64
2018-08-22T06:28:09.803Z,95.55
2018-08-22T06:29:09.787Z,95.40
2018-08-22T06:30:09.778Z,93.66
2018-08-22T06:31:09.781Z,94.24
2018-08-22T06:32:09.760Z,92.22
2018-08-22T06:33:09.782Z,91.45
2018-08-22T06:34:09.779Z,90.20
2018-08-22T06:35:09.717Z,89.43
2018-08-22T06:36:09.776Z,89.09
2018-08-22T06:37:09.693Z,88.31
2018-08-22T06:38:09.680Z,88.99
2018-08-22T06:39:09.694Z,88.60
2018-08-22T06:40:09.658Z,88.02
2018-08-22T06:41:09.645Z,87.93
2018-08-22T06:42:09.648Z,87.74
2018-08-22T06:43:09.621Z,88.02
2018-08-22T06:44:09.651Z,88.22
2018-08-22T06:45:09.597Z,87.93
2018-08-22T06:46:09.587Z,87.54
2018-08-22T06:47:09.589Z,87.64
2018-08-22T06:48:09.558Z,87.26
2018-08-22T06:49:09.547Z,87.93
2018-08-22T06:50:09.545Z,87.93
2018-08-22T06:51:09.526Z,87.16
2018-08-22T06:52:09.522Z,87.26
2018-08-22T06:53:09.507Z,86.87
2018-08-22T06:54:09.488Z,86.77
2018-08-22T06:55:09.482Z,87.26
2018-08-22T06:56:09.461Z,86.43
2018-08-22T06:57:09.472Z,86.52
2018-08-22T06:58:09.450Z,86.91
2018-08-22T06:59:09.423Z,85.37
2018-08-22T07:00:09.410Z,84.89
2018-08-22T07:01:09.400Z,85.17
2018-08-22T07:02:09.393Z,85.75
2018-08-22T07:03:09.405Z,84.98
2018-08-22T07:04:09.367Z,84.41
2018-08-22T07:05:09.354Z,84.54
2018-08-22T07:06:09.341Z,84.16
2018-08-22T07:07:09.331Z,83.77
2018-08-22T07:08:09.359Z,82.13
2018-08-22T07:09:09.322Z,81.55
2018-08-22T07:10:09.307Z,81.35
2018-08-22T07:11:09.282Z,80.20
2018-08-22T07:12:09.271Z,80.68
2018-08-22T07:13:09.260Z,79.91
2018-08-22T07:14:09.290Z,79.91
2018-08-22T07:15:09.256Z,80.30
2018-08-22T07:16:09.224Z,79.72
2018-08-22T07:17:09.210Z,79.91
2018-08-22T07:18:09.200Z,79.72
2018-08-22T07:19:09.203Z,79.72
2018-08-22T07:20:09.174Z,79.62
2018-08-22T07:21:30.174Z,79.62
2018-08-22T07:22:09.150Z,80.14
2018-08-22T07:23:09.139Z,80.72
2018-08-22T07:24:09.143Z,80.14
2018-08-22T07:25:09.130Z,79.95
2018-08-22T07:26:09.101Z,79.56
2018-08-22T07:27:09.093Z,79.56
2018-08-22T07:28:09.080Z,79.17
2018-08-22T07:29:09.071Z,78.69
2018-08-22T07:30:09.128Z,78.99
2018-08-22T07:31:09.042Z,78.99
2018-08-22T07:32:09.034Z,78.64
2018-08-22T07:33:09.023Z,78.31
2018-08-22T07:34:09.009Z,78.73
2018-08-22T07:35:09.002Z,78.15
2018-08-22T07:36:09.000Z,78.54
2018-08-22T07:37:08.979Z,77.96
2018-08-22T07:38:08.959Z,78.15
2018-08-22T07:39:08.954Z,78.15
2018-08-22T07:40:08.941Z,78.44
2018-08-22T07:41:08.944Z,78.44
2018-08-22T07:42:08.932Z,78.25
2018-08-22T07:43:08.905Z,77.76
2018-08-22T07:44:08.892Z,78.34
2018-08-22T07:45:08.884Z,78.29
2018-08-22T07:46:08.869Z,77.51
2018-08-22T07:47:08.921Z,78.09
2018-08-22T07:48:08.842Z,77.42
2018-08-22T07:49:08.834Z,77.51
2018-08-22T07:50:08.839Z,77.90
2018-08-22T07:51:08.809Z,77.17
2018-08-22T07:52:08.815Z,76.68
2018-08-22T07:53:08.804Z,76.49
2018-08-22T07:54:08.779Z,75.81
2018-08-22T07:55:08.767Z,76.01
2018-08-22T07:56:08.775Z,75.65
2018-08-22T07:57:08.760Z,76.14
2018-08-22T07:58:08.737Z,75.91
2018-08-22T07:59:08.723Z,76.10
2018-08-22T08:00:08.738Z,76.10
2018-08-22T08:01:08.701Z,76.10
2018-08-22T08:02:08.703Z,76.24
2018-08-22T08:03:08.679Z,74.98
2018-08-22T08:04:08.682Z,75.07
2018-08-22T08:05:08.657Z,75.52
2018-08-22T08:06:08.646Z,74.98
2018-08-22T08:07:08.636Z,75.17
2018-08-22T08:08:08.629Z,74.88
2018-08-22T08:09:08.615Z,75.65
2018-08-22T08:10:08.618Z,75.81
2018-08-22T08:11:08.591Z,76.91
2018-08-22T08:12:08.580Z,77.40
2018-08-22T08:13:08.583Z,75.31
2018-08-22T08:14:08.560Z,74.92
2018-08-22T08:15:08.591Z,74.21
2018-08-22T08:16:08.536Z,75.07
2018-08-22T08:17:08.619Z,74.79
2018-08-22T08:18:08.515Z,74.49
2018-08-22T08:19:08.502Z,74.30
2018-08-22T08:20:08.490Z,73.72
2018-08-22T08:21:08.496Z,74.88
2018-08-22T08:22:08.472Z,75.46
2018-08-22T08:23:08.493Z,74.88
2018-08-22T08:24:08.452Z,75.60
2018-08-22T08:25:08.441Z,75.27
2018-08-22T08:26:08.462Z,75.50
2018-08-22T08:27:08.419Z,74.63
2018-08-22T08:28:08.408Z,75.02
2018-08-22T08:29:08.410Z,74.82
2018-08-22T08:30:08.389Z,74.53
2018-08-22T08:31:08.376Z,74.96
2018-08-22T08:32:08.377Z,74.47
2018-08-22T08:33:08.352Z,73.50
2018-08-22T08:34:08.341Z,72.92
2018-08-22T08:35:08.345Z,73.50
2018-08-22T08:36:08.403Z,73.50
2018-08-22T08:37:08.326Z,72.92
2018-08-22T08:38:08.301Z,72.86
2018-08-22T08:39:08.310Z,73.44
2018-08-22T08:40:08.281Z,72.96
2018-08-22T08:41:08.295Z,73.25
2018-08-22T08:42:08.268Z,72.28
2018-08-22T08:43:08.247Z,72.67
2018-08-22T08:44:08.249Z,72.77
2018-08-22T08:45:08.226Z,72.47
2018-08-22T08:46:08.218Z,73.73
2018-08-22T08:47:08.230Z,72.02
2018-08-22T08:48:08.198Z,71.93
2018-08-22T08:49:08.189Z,71.19
2018-08-22T08:50:08.193Z,70.70
2018-08-22T08:51:08.164Z,70.06
2018-08-22T08:52:08.153Z,70.54
2018-08-22T08:53:08.154Z,68.93
2018-08-22T08:54:08.134Z,67.21
2018-08-22T08:55:08.124Z,66.92
2018-08-22T08:56:08.128Z,65.98
2018-08-22T08:57:08.121Z,66.21
2018-08-22T08:58:08.090Z,65.04
2018-08-22T08:59:08.083Z,64.65
2018-08-22T09:00:08.091Z,64.46
2018-08-22T09:01:08.076Z,63.81
2018-08-22T09:02:08.054Z,62.77
2018-08-22T09:03:08.090Z,61.24
2018-08-22T09:04:08.057Z,60.91
2018-08-22T09:05:08.024Z,59.55
2018-08-22T09:06:08.029Z,59.09
2018-08-22T09:07:08.007Z,58.07
2018-08-22T09:08:07.995Z,56.74
2018-08-22T09:09:07.980Z,57.06
2018-08-22T09:10:07.978Z,54.81
2018-08-22T09:11:07.981Z,54.64
2018-08-22T09:12:07.963Z,54.74
2018-08-22T09:13:07.947Z,56.64
2018-08-22T09:14:07.949Z,57.75
2018-08-22T09:15:07.947Z,58.24
2018-08-22T09:16:07.917Z,58.01
2018-08-22T09:17:07.919Z,57.71
2018-08-22T09:18:07.902Z,58.66
2018-08-22T09:19:07.894Z,56.54
2018-08-22T09:20:07.922Z,56.35
2018-08-22T09:21:07.880Z,57.39
2018-08-22T09:22:07.888Z,56.12
2018-08-22T09:23:07.854Z,57.62
2018-08-22T09:24:07.892Z,56.76
2018-08-22T09:25:07.849Z,57.03
2018-08-22T09:26:07.828Z,55.45
2018-08-22T09:27:07.835Z,52.67
2018-08-22T09:28:07.836Z,51.90
2018-08-22T09:29:07.804Z,49.95
2018-08-22T09:30:07.794Z,50.51
2018-08-22T09:31:07.806Z,52.08
2018-08-22T09:32:07.782Z,51.61
2018-08-22T09:33:07.771Z,53.57
2018-08-22T09:34:07.764Z,51.90
2018-08-22T09:35:07.757Z,51.59
2018-08-22T09:36:07.753Z,51.03
2018-08-22T09:37:07.769Z,53.03
2018-08-22T09:38:07.737Z,53.42
2018-08-22T09:39:07.734Z,52.73
2018-08-22T09:40:07.823Z,51.86
2018-08-22T09:41:07.719Z,52.81
2018-08-22T09:42:07.735Z,53.08
2018-08-22T09:43:07.744Z,54.13
2018-08-22T09:44:07.712Z,54.20
2018-08-22T09:45:07.701Z,54.03
2018-08-22T09:46:07.692Z,53.39
2018-08-22T09:47:07.692Z,52.08
2018-08-22T09:48:07.722Z,52.89
2018-08-22T09:49:07.683Z,50.15
2018-08-22T09:50:07.699Z,50.20
2018-08-22T09:51:07.673Z,50.78
2018-08-22T09:52:07.664Z,50.34
2018-08-22T09:53:07.682Z,51.86
2018-08-22T09:54:07.658Z,52.71
2018-08-22T09:55:07.658Z,52.76
2018-08-22T09:56:07.653Z,49.02
2018-08-22T09:57:07.672Z,49.51
2018-08-22T09:58:07.688Z,50.12
2018-08-22T09:59:07.648Z,48.23
2018-08-22T10:00:07.665Z,46.97
2018-08-22T10:01:07.643Z,47.19
2018-08-22T10:02:07.635Z,43.20
2018-08-22T10:03:07.652Z,41.65
2018-08-22T10:04:07.671Z,40.96
2018-08-22T10:05:07.665Z,40.48
2018-08-22T10:06:07.622Z,41.57
2018-08-22T10:07:07.657Z,40.88
2018-08-22T10:08:07.645Z,40.48
2018-08-22T10:09:07.621Z,40.01
2018-08-22T10:10:07.621Z,41.20
2018-08-22T10:11:07.652Z,41.20
2018-08-22T10:12:07.617Z,41.47
2018-08-22T10:13:07.617Z,41.39
2018-08-22T10:14:07.614Z,40.31
2018-08-22T10:15:07.612Z,39.60
2018-08-22T10:16:07.608Z,39.68
2018-08-22T10:17:07.674Z,42.47
2018-08-22T10:18:07.607Z,43.53
2018-08-22T10:19:07.608Z,43.83
2018-08-22T10:20:07.619Z,45.30
2018-08-22T10:21:07.603Z,43.90
2018-08-22T10:22:07.603Z,43.69
2018-08-22T10:23:07.598Z,47.06
2018-08-22T10:24:07.603Z,46.02
2018-08-22T10:25:07.630Z,45.75
2018-08-22T10:26:07.598Z,43.98
2018-08-22T10:27:07.624Z,43.43
2018-08-22T10:28:07.591Z,42.57
2018-08-22T10:29:07.595Z,41.31
2018-08-22T10:30:07.600Z,42.02
2018-08-22T10:31:07.623Z,43.29
2018-08-22T10:32:07.595Z,43.08
2018-08-22T10:33:07.689Z,44.41
2018-08-22T10:34:07.594Z,45.31
2018-08-22T10:35:07.597Z,45.49
2018-08-22T10:36:07.595Z,45.53
2018-08-22T10:37:07.610Z,46.44
2018-08-22T10:38:07.592Z,43.33
2018-08-22T10:39:07.597Z,45.38
2018-08-22T10:40:07.587Z,44.12
2018-08-22T10:41:07.592Z,44.56
2018-08-22T10:42:07.610Z,41.94
2018-08-22T10:43:07.598Z,42.99
2018-08-22T10:44:07.611Z,42.36
2018-08-22T10:45:07.601Z,40.33
2018-08-22T10:46:08.501Z,41.12
2018-08-22T10:47:07.608Z,40.51
2018-08-22T10:48:07.696Z,42.02
2018-08-22T10:49:07.599Z,43.73
2018-08-22T10:50:07.596Z,43.83
2018-08-22T10:51:07.594Z,44.35
2018-08-22T10:52:07.599Z,46.17
2018-08-22T10:53:07.614Z,46.64
2018-08-22T10:54:07.625Z,47.25
2018-08-22T10:55:07.593Z,47.47
2018-08-22T10:56:07.596Z,45.43
2018-08-22T10:57:07.598Z,47.37
2018-08-22T10:58:07.593Z,47.33
2018-08-22T10:59:07.603Z,46.08
2018-08-22T11:00:07.627Z,46.20
2018-08-22T11:01:07.598Z,44.74
2018-08-22T11:02:07.602Z,44.49
2018-08-22T11:03:07.598Z,44.34
2018-08-22T11:04:07.598Z,42.83
2018-08-22T11:05:07.614Z,40.70
2018-08-22T11:06:07.606Z,39.34
2018-08-22T11:07:07.602Z,38.08
2018-08-22T11:08:07.599Z,40.25
2018-08-22T11:09:07.596Z,41.59
2018-08-22T11:10:07.615Z,41.77
2018-08-22T11:11:07.612Z,42.14
2018-08-22T11:12:07.595Z,41.80
2018-08-22T11:13:07.592Z,41.31
2018-08-22T11:14:07.599Z,41.14
2018-08-22T11:15:07.614Z,41.83
2018-08-22T11:16:07.609Z,41.38
2018-08-22T11:17:07.603Z,41.30
2018-08-22T11:18:07.604Z,38.43
2018-08-22T11:19:07.615Z,40.51
2018-08-22T11:20:07.647Z,40.00
2018-08-22T11:21:07.615Z,39.60
2018-08-22T11:22:07.604Z,39.81
2018-08-22T11:23:07.608Z,37.96
2018-08-22T11:24:07.607Z,38.56
2018-08-22T11:25:07.611Z,38.93
2018-08-22T11:26:07.634Z,38.43
2018-08-22T11:27:07.609Z,38.85
2018-08-22T11:28:07.612Z,38.96
2018-08-22T11:29:07.612Z,39.73
2018-08-22T11:30:07.609Z,38.57
2018-08-22T11:31:07.618Z,37.90
2018-08-22T11:32:07.633Z,38.39
2018-08-22T11:33:07.615Z,39.04
2018-08-22T11:34:07.618Z,39.06
2018-08-22T11:35:07.617Z,38.28
2018-08-22T11:36:07.643Z,38.87
2018-08-22T11:37:07.621Z,40.13
2018-08-22T11:38:07.626Z,40.63
2018-08-22T11:39:07.625Z,39.72
2018-08-22T11:40:07.628Z,41.06
2018-08-22T11:41:07.629Z,40.33
2018-08-22T11:42:07.646Z,42.94
2018-08-22T11:43:07.631Z,42.45
2018-08-22T11:44:07.631Z,43.24
2018-08-22T11:45:07.633Z,43.48
2018-08-22T11:46:07.630Z,43.65
2018-08-22T11:47:07.637Z,43.06
2018-08-22T11:48:07.651Z,43.08
2018-08-22T11:49:07.636Z,43.38
2018-08-22T11:50:07.635Z,41.93
2018-08-22T11:51:07.644Z,42.32
2018-08-22T11:52:07.641Z,41.35
2018-08-22T11:53:07.676Z,42.22
2018-08-22T11:54:07.654Z,41.09
2018-08-22T11:55:07.647Z,42.80
2018-08-22T11:56:07.817Z,43.86
2018-08-22T11:57:07.647Z,44.12
2018-08-22T11:58:07.651Z,44.16
2018-08-22T11:59:07.667Z,43.00
2018-08-22T12:00:07.657Z,42.14
2018-08-22T12:01:07.657Z,41.59
2018-08-22T12:02:07.654Z,41.29
2018-08-22T12:03:07.673Z,40.72
2018-08-22T12:04:07.670Z,41.88
2018-08-22T12:05:07.657Z,41.00
2018-08-22T12:06:07.682Z,41.11
2018-08-22T12:07:07.661Z,40.43
2018-08-22T12:08:07.668Z,41.98
2018-08-22T12:09:07.677Z,41.55
2018-08-22T12:10:07.679Z,43.18
2018-08-22T12:11:07.667Z,44.57
2018-08-22T12:12:07.669Z,45.57
2018-08-22T12:13:07.667Z,43.33
2018-08-22T12:14:07.671Z,43.65
2018-08-22T12:15:07.689Z,43.08
2018-08-22T12:16:07.716Z,43.10
2018-08-22T12:17:07.673Z,42.41
2018-08-22T12:18:07.673Z,41.06
2018-08-22T12:19:07.671Z,39.18
2018-08-22T12:20:07.690Z,39.78
2018-08-22T12:21:07.680Z,39.68
2018-08-22T12:22:07.693Z,41.35
2018-08-22T12:23:07.763Z,39.72
2018-08-22T12:24:07.680Z,41.45
2018-08-22T12:25:07.683Z,43.96
2018-08-22T12:26:07.680Z,45.63
2018-08-22T12:27:07.718Z,46.20
2018-08-22T12:28:07.679Z,46.39
2018-08-22T12:29:07.684Z,46.22
2018-08-22T12:30:07.682Z,44.69
2018-08-22T12:31:07.757Z,44.10
2018-08-22T12:32:07.682Z,44.79
2018-08-22T12:33:07.699Z,44.69
2018-08-22T12:34:07.684Z,44.52
2018-08-22T12:35:07.684Z,44.08
2018-08-22T12:36:07.682Z,44.65
2018-08-22T12:37:07.681Z,42.90
2018-08-22T12:38:07.700Z,43.32
2018-08-22T12:39:07.686Z,46.26
2018-08-22T12:40:07.686Z,43.12
2018-08-22T12:41:07.684Z,43.98
2018-08-22T12:42:07.685Z,44.06
2018-08-22T12:43:07.684Z,43.96
2018-08-22T12:44:07.705Z,44.47
2018-08-22T12:45:07.686Z,46.81
2018-08-22T12:46:07.681Z,45.55
2018-08-22T12:47:07.686Z,42.61
2018-08-22T12:48:07.681Z,43.61
2018-08-22T12:49:07.684Z,43.61
2018-08-22T12:50:07.694Z,42.55
2018-08-22T12:51:07.685Z,41.39
2018-08-22T12:52:07.683Z,41.78